Time;durP1;ratioP1;P1;durP2;ratioP2;P2;SDS_P1;SDS_P2;PMS_P1;PMS_P2;Temp;Humidity;BMP_temperature;BMP_pressure;BME280_temperature;BME280_humidity;BME280_pressure;Samples;Min_cycle;Max_cycle;Signal;HPM_P1;HPM_P2
2021/05/30 00:01:45;;;;;;;19.85;13.63;;;;;;;8.12;72.29;101645.94;8613031;33;20548;-73
2021/05/30 00:06:48;;;;;;;21.92;13.38;;;;;;;8.12;72.23;101643.28;8605107;33;20151;-73
2021/05/30 00:11:51;;;;;;;20.88;12.70;;;;;;;8.17;71.87;101644.78;8602738;33;20405;-73
2021/05/30 00:16:54;;;;;;;20.80;12.60;;;;;;;8.02;71.98;101655.38;8583896;33;20545;-72
2021/05/30 00:21:58;;;;;;;20.80;13.30;;;;;;;8.07;71.70;101654.22;8553051;33;20459;-72
2021/05/30 00:27:00;;;;;;;21.38;13.20;;;;;;;8.07;71.74;101643.50;8597277;33;21116;-73
2021/05/30 00:32:04;;;;;;;23.92;14.00;;;;;;;8.09;71.63;101646.97;8594273;33;20512;-73
2021/05/30 00:37:08;;;;;;;20.58;12.95;;;;;;;8.15;71.37;101651.16;8592757;33;20540;-73
2021/05/30 00:42:11;;;;;;;19.10;12.00;;;;;;;8.14;71.08;101649.41;8593709;33;20138;-73
2021/05/30 00:47:13;;;;;;;20.88;12.85;;;;;;;8.14;70.86;101652.94;8593599;33;20154;-73
2021/05/30 00:52:17;;;;;;;20.80;13.73;;;;;;;8.26;70.91;101648.78;8594478;33;20412;-73
2021/05/30 00:57:20;;;;;;;19.55;12.95;;;;;;;8.30;70.68;101653.03;8600068;33;20500;-73
2021/05/30 01:02:22;;;;;;;17.13;11.93;;;;;;;8.17;70.28;101658.16;8605596;33;20317;-73
2021/05/30 01:07:26;;;;;;;21.42;13.98;;;;;;;8.12;70.15;101660.19;8603699;33;20584;-73
2021/05/30 01:12:29;;;;;;;20.92;12.95;;;;;;;8.02;70.64;101655.38;8603575;33;20983;-73
2021/05/30 01:17:31;;;;;;;19.92;13.30;;;;;;;7.94;70.85;101658.44;8603336;33;20179;-73
2021/05/30 01:22:36;;;;;;;21.67;13.73;;;;;;;7.75;71.53;101655.81;8612274;32;20620;-72
2021/05/30 01:27:40;;;;;;;20.95;13.07;;;;;;;7.38;73.26;101659.41;8617096;33;20463;-72
2021/05/30 01:32:44;;;;;;;23.95;15.50;;;;;;;7.75;73.07;101657.63;8616457;32;20193;-72
2021/05/30 01:37:48;;;;;;;26.95;14.52;;;;;;;7.90;72.45;101643.50;8610847;33;20970;-73
2021/05/30 01:42:56;;;;;;;26.55;15.10;;;;;;;7.97;71.95;101650.25;8603298;33;20417;-73
2021/05/30 01:47:59;;;;;;;22.80;13.90;;;;;;;7.97;71.34;101647.56;8657704;33;20174;-73
2021/05/30 01:53:06;;;;;;;25.23;14.63;;;;;;;7.85;71.41;101646.38;8656984;33;20268;-73
2021/05/30 01:58:11;;;;;;;24.65;14.75;;;;;;;7.88;71.36;101648.91;8654007;33;20141;-73
2021/05/30 02:03:14;;;;;;;24.90;14.40;;;;;;;7.90;71.45;101649.69;8653619;33;20415;-73
2021/05/30 02:08:17;;;;;;;21.52;13.90;;;;;;;7.71;71.29;101657.78;8629722;33;20539;-72
2021/05/30 02:13:22;;;;;;;24.38;14.90;;;;;;;7.61;71.65;101658.28;8654909;33;20430;-72
2021/05/30 02:18:24;;;;;;;25.10;14.45;;;;;;;7.49;71.90;101655.25;8654013;33;20240;-73
2021/05/30 02:23:27;;;;;;;27.60;15.40;;;;;;;7.48;72.45;101652.66;8654270;33;21930;-73
2021/05/30 02:28:30;;;;;;;28.25;16.48;;;;;;;7.41;72.57;101652.09;8652974;33;20569;-73
2021/05/30 02:33:33;;;;;;;25.88;14.68;;;;;;;7.30;72.08;101649.06;8654423;33;20683;-73
2021/05/30 02:38:36;;;;;;;28.40;15.65;;;;;;;7.29;71.33;101652.66;8652567;33;20421;-73
2021/05/30 02:43:40;;;;;;;23.27;14.45;;;;;;;7.18;72.28;101647.81;8656559;33;20536;-73
2021/05/30 02:48:43;;;;;;;26.52;15.27;;;;;;;7.18;72.63;101645.13;8651252;33;20170;-73
2021/05/30 02:53:46;;;;;;;24.17;14.82;;;;;;;7.12;72.57;101653.44;8650638;33;20458;-72
2021/05/30 02:58:49;;;;;;;25.05;14.40;;;;;;;7.17;72.42;101637.22;8647466;33;20273;-73
2021/05/30 03:03:52;;;;;;;27.33;14.88;;;;;;;7.13;71.96;101646.28;8650705;33;20496;-72
2021/05/30 03:08:55;;;;;;;24.38;13.60;;;;;;;7.11;71.73;101650.88;8652912;33;20235;-73
2021/05/30 03:13:58;;;;;;;23.80;13.57;;;;;;;7.07;71.68;101647.44;8656923;33;20177;-72
2021/05/30 03:19:01;;;;;;;24.67;13.25;;;;;;;6.96;71.32;101647.94;8657389;33;20449;-73
2021/05/30 03:24:05;;;;;;;24.40;12.27;;;;;;;6.93;71.49;101650.75;8625873;33;21025;-73
2021/05/30 03:29:09;;;;;;;23.50;12.20;;;;;;;6.93;71.38;101657.91;8647017;33;21239;-73
2021/05/30 03:34:11;;;;;;;25.55;13.85;;;;;;;6.92;71.33;101665.06;8645164;33;20146;-72
2021/05/30 03:39:14;;;;;;;26.90;13.73;;;;;;;6.84;71.54;101669.84;8621137;33;20902;-73
2021/05/30 03:44:19;;;;;;;25.42;13.75;;;;;;;6.81;71.99;101670.84;8645053;33;20429;-72
2021/05/30 03:49:21;;;;;;;24.13;13.88;;;;;;;6.89;71.91;101670.56;8645849;33;20189;-72
2021/05/30 03:54:24;;;;;;;24.38;14.02;;;;;;;6.80;72.05;101671.81;8643034;33;20416;-72
2021/05/30 03:59:28;;;;;;;22.92;14.23;;;;;;;6.85;72.80;101671.56;8645883;33;20453;-72
2021/05/30 04:04:30;;;;;;;26.95;14.43;;;;;;;6.95;72.12;101674.75;8648678;33;20236;-72
2021/05/30 04:09:33;;;;;;;23.42;14.32;;;;;;;6.89;72.43;101670.56;8652844;33;20167;-72
2021/05/30 04:14:37;;;;;;;23.08;13.65;;;;;;;6.68;72.93;101675.00;8655239;33;20408;-72
2021/05/30 04:19:39;;;;;;;27.13;14.75;;;;;;;6.57;73.50;101671.94;8659732;33;20698;-72
2021/05/30 04:24:42;;;;;;;24.33;12.90;;;;;;;6.66;73.50;101674.19;8658923;33;20435;-72
2021/05/30 04:29:45;;;;;;;22.85;13.55;;;;;;;6.65;73.72;101676.94;8662464;33;20216;-72
2021/05/30 04:34:48;;;;;;;27.42;15.25;;;;;;;6.89;73.02;101677.69;8660135;33;20471;-72
2021/05/30 04:39:51;;;;;;;24.15;13.98;;;;;;;6.98;72.59;101686.16;8659033;33;20513;-72
2021/05/30 04:44:54;;;;;;;21.33;12.82;;;;;;;6.85;73.34;101680.44;8653005;33;20142;-72
2021/05/30 04:49:57;;;;;;;29.08;14.40;;;;;;;6.87;74.27;101684.88;8652831;33;20425;-72
2021/05/30 04:54:59;;;;;;;30.27;16.38;;;;;;;7.06;74.36;101678.66;8651351;33;21885;-72
2021/05/30 05:00:05;;;;;;;31.70;16.83;;;;;;;7.33;74.28;101682.81;8649093;33;21232;-72
2021/05/30 05:05:11;;;;;;;32.45;16.98;;;;;;;7.55;73.81;101678.16;8648738;33;20527;-72
2021/05/30 05:10:13;;;;;;;25.92;15.10;;;;;;;7.71;73.17;101676.50;8652626;33;20158;-72
2021/05/30 05:15:17;;;;;;;29.95;16.08;;;;;;;7.89;72.92;101685.41;8654004;33;20659;-72
2021/05/30 05:20:20;;;;;;;34.72;17.17;;;;;;;8.09;72.68;101695.16;8650818;33;20447;-72
2021/05/30 05:25:22;;;;;;;29.55;15.63;;;;;;;8.18;72.36;101691.13;8651143;33;20250;-72
2021/05/30 05:30:27;;;;;;;32.80;17.45;;;;;;;8.53;72.49;101688.47;8655788;33;20505;-72
2021/05/30 05:35:30;;;;;;;29.80;16.63;;;;;;;8.76;71.60;101684.63;8656543;33;20481;-72
2021/05/30 05:40:32;;;;;;;27.30;15.77;;;;;;;8.91;71.24;101688.28;8657093;33;21417;-72
2021/05/30 05:45:37;;;;;;;28.67;16.27;;;;;;;9.07;71.25;101691.88;8654338;33;20405;-72
2021/05/30 05:50:40;;;;;;;27.33;15.95;;;;;;;9.25;70.89;101703.44;8657368;33;20285;-71
2021/05/30 05:55:44;;;;;;;27.13;15.10;;;;;;;9.40;70.35;101696.34;8659758;33;20428;-71
2021/05/30 06:00:47;;;;;;;26.42;14.75;;;;;;;9.47;70.31;101708.47;8646093;33;20174;-71
2021/05/30 06:05:50;;;;;;;30.27;15.65;;;;;;;9.65;70.17;101695.84;8564905;33;20393;-71
2021/05/30 06:10:53;;;;;;;26.92;14.13;;;;;;;9.79;68.86;101697.75;8562987;33;20427;-71
2021/05/30 06:15:56;;;;;;;27.05;15.20;;;;;;;10.00;69.48;101695.69;8557767;33;20310;-71
2021/05/30 06:20:59;;;;;;;13.15;8.68;;;;;;;10.33;68.66;101704.44;8616612;32;20987;-71
2021/05/30 06:26:08;;;;;;;20.45;11.20;;;;;;;10.56;68.21;101702.25;8608760;33;20197;-71
2021/05/30 06:31:12;;;;;;;22.95;12.32;;;;;;;10.87;67.57;101705.75;8620237;33;20439;-71
2021/05/30 06:36:15;;;;;;;28.80;15.10;;;;;;;11.27;67.58;101701.44;8643455;32;20524;-71
2021/05/30 06:41:18;;;;;;;19.63;12.82;;;;;;;11.56;65.93;101702.28;8624946;27;20982;-73
2021/05/30 06:46:21;;;;;;;15.55;10.13;;;;;;;11.69;65.25;101696.97;8596186;33;20592;-74
2021/05/30 06:51:28;;;;;;;19.73;12.15;;;;;;;11.89;64.00;101701.06;8569418;33;20432;-74
2021/05/30 06:56:31;;;;;;;17.92;10.82;;;;;;;11.84;64.36;101695.09;8642111;33;20406;-74
2021/05/30 07:01:34;;;;;;;19.42;11.48;;;;;;;11.84;63.75;101687.88;8659100;33;20912;-74
2021/05/30 07:06:39;;;;;;;20.52;13.13;;;;;;;12.26;64.13;101687.81;8655595;33;20468;-75
2021/05/30 07:11:42;;;;;;;18.63;10.95;;;;;;;12.46;63.55;101681.13;8654121;33;20946;-74
2021/05/30 07:16:45;;;;;;;18.85;10.27;;;;;;;12.30;61.70;101684.00;8653494;33;20505;-73
2021/05/30 07:21:48;;;;;;;18.77;10.15;;;;;;;12.46;62.10;101673.03;8654401;33;20692;-74
2021/05/30 07:26:51;;;;;;;15.88;9.52;;;;;;;13.14;60.39;101672.72;8657768;33;20410;-73
2021/05/30 07:31:54;;;;;;;19.77;9.13;;;;;;;13.39;59.07;101677.25;8659654;33;20210;-73
2021/05/30 07:36:57;;;;;;;13.93;8.43;;;;;;;13.58;57.18;101678.63;8658856;33;20154;-73
2021/05/30 07:42:00;;;;;;;13.07;7.80;;;;;;;14.17;57.73;101675.97;8636043;33;20438;-73
2021/05/30 07:47:04;;;;;;;13.20;8.88;;;;;;;14.75;56.49;101671.50;8663058;33;20234;-73
2021/05/30 07:52:08;;;;;;;12.10;7.72;;;;;;;14.67;54.21;101668.53;8665732;33;20147;-73
2021/05/30 07:57:11;;;;;;;13.70;8.25;;;;;;;15.22;55.40;101684.94;8666164;33;20411;-75
2021/05/30 08:02:15;;;;;;;13.35;8.27;;;;;;;15.53;52.91;101682.50;8665834;33;20135;-74
2021/05/30 08:07:21;;;;;;;12.88;7.95;;;;;;;16.15;53.47;101680.00;8666162;33;21067;-74
2021/05/30 08:12:26;;;;;;;16.00;7.93;;;;;;;16.49;51.92;101671.72;8669834;33;20749;-75
2021/05/30 08:17:30;;;;;;;10.50;7.55;;;;;;;17.10;51.20;101675.50;8672021;33;20339;-74
2021/05/30 08:22:33;;;;;;;13.68;7.18;;;;;;;17.62;47.96;101668.13;8663566;33;20135;-74
2021/05/30 08:27:36;;;;;;;10.65;7.55;;;;;;;17.81;47.02;101675.47;8660872;33;20398;-74
2021/05/30 08:32:40;;;;;;;11.35;7.28;;;;;;;17.56;46.76;101658.69;8660985;33;20651;-74
2021/05/30 08:37:44;;;;;;;11.15;7.47;;;;;;;17.62;44.81;101665.41;8666787;33;20143;-74
2021/05/30 08:42:47;;;;;;;12.23;6.70;;;;;;;16.93;48.51;101661.56;8666863;33;20412;-75
2021/05/30 08:47:51;;;;;;;11.05;7.22;;;;;;;17.57;47.88;101659.53;8659614;33;20646;-74
2021/05/30 08:52:54;;;;;;;10.98;7.15;;;;;;;18.25;47.20;101654.22;8659285;33;20413;-74
2021/05/30 08:57:57;;;;;;;11.75;7.03;;;;;;;18.29;45.17;101664.66;8650677;33;20420;-74
2021/05/30 09:03:14;;;;;;;10.13;6.78;;;;;;;18.35;45.42;101650.47;8602428;33;20140;-74
2021/05/30 09:08:30;;;;;;;10.13;7.25;;;;;;;17.89;47.01;101646.59;8648325;33;20430;-74
2021/05/30 09:13:38;;;;;;;8.73;7.00;;;;;;;18.20;47.25;101651.06;8644162;33;20407;-74
2021/05/30 09:18:42;;;;;;;8.13;6.57;;;;;;;18.54;47.14;101652.31;8654771;33;20407;-74
2021/05/30 09:23:46;;;;;;;9.32;5.18;;;;;;;19.24;42.09;101644.66;8657228;33;20139;-74
2021/05/30 09:29:06;;;;;;;8.15;4.90;;;;;;;20.17;41.19;101643.63;8657804;33;20628;-74
2021/05/30 09:34:28;;;;;;;6.13;4.95;;;;;;;20.84;38.40;101647.56;8654520;33;20821;-74
2021/05/30 09:39:35;;;;;;;8.63;6.90;;;;;;;20.65;40.90;101640.47;8655567;33;20422;-74
2021/05/30 09:44:55;;;;;;;11.25;6.75;;;;;;;21.20;40.99;101633.78;8647845;33;20167;-74
2021/05/30 09:49:59;;;;;;;9.27;6.45;;;;;;;21.16;39.85;101646.06;8639526;33;20434;-74
2021/05/30 09:55:13;;;;;;;9.73;6.80;;;;;;;21.83;39.73;101629.72;8638541;33;21112;-74
2021/05/30 10:00:21;;;;;;;12.52;5.82;;;;;;;21.97;38.14;101629.06;8613912;33;20170;-74
2021/05/30 10:05:25;;;;;;;6.18;4.88;;;;;;;21.59;37.30;101625.03;8640462;33;20419;-74
2021/05/30 10:10:39;;;;;;;7.07;5.45;;;;;;;20.97;40.79;101623.41;8640031;33;20406;-73
2021/05/30 10:15:42;;;;;;;10.05;7.03;;;;;;;22.26;39.11;101616.75;8576346;33;20442;-73
2021/05/30 10:20:47;;;;;;;9.70;6.25;;;;;;;21.89;38.42;101629.91;8650060;33;20424;-75
2021/05/30 10:25:50;;;;;;;6.95;5.72;;;;;;;22.75;37.90;101616.72;8596221;33;20323;-75
2021/05/30 10:31:20;;;;;;;5.53;4.43;;;;;;;23.45;36.92;101629.69;8609385;33;20500;-75
2021/05/30 10:36:24;;;;;;;5.28;3.50;;;;;;;23.94;31.62;101628.53;8660109;33;21023;-75
2021/05/30 10:41:26;;;;;;;4.15;3.72;;;;;;;24.34;32.00;101621.84;8655577;33;20179;-75
2021/05/30 10:46:49;;;;;;;4.30;3.20;;;;;;;24.53;31.62;101626.00;8653835;33;20139;-76
2021/05/30 10:51:53;;;;;;;3.63;3.10;;;;;;;24.97;28.57;101620.53;8640638;33;20433;-74
2021/05/30 10:56:57;;;;;;;4.55;3.65;;;;;;;24.82;29.12;101611.44;8594802;33;20417;-74
2021/05/30 11:02:02;;;;;;;2.72;2.53;;;;;;;24.80;27.36;101609.94;8560039;33;20869;-75
2021/05/30 11:07:40;;;;;;;4.65;2.67;;;;;;;24.96;28.59;101601.50;8566576;33;20898;-74
2021/05/30 11:12:54;;;;;;;3.33;2.85;;;;;;;24.53;29.84;101613.13;8567320;33;20426;-75
2021/05/30 11:18:00;;;;;;;3.05;2.75;;;;;;;24.95;28.74;101599.78;8561480;33;20409;-75
2021/05/30 11:23:09;;;;;;;2.45;2.25;;;;;;;25.40;27.68;101601.47;8559358;33;20398;-74
2021/05/30 11:28:13;;;;;;;4.05;2.83;;;;;;;25.99;27.16;101597.66;8566854;33;20379;-75
2021/05/30 11:33:29;;;;;;;2.92;2.63;;;;;;;25.93;25.46;101594.84;8558546;33;20397;-74
2021/05/30 11:38:36;;;;;;;4.82;2.70;;;;;;;25.89;26.10;101588.91;8533409;33;20531;-74
2021/05/30 11:43:38;;;;;;;3.13;2.83;;;;;;;25.63;27.13;101590.31;8558956;33;20829;-74
2021/05/30 11:48:42;;;;;;;2.67;2.33;;;;;;;26.39;25.99;101583.41;8536649;33;20916;-76
2021/05/30 11:53:46;;;;;;;3.72;2.63;;;;;;;26.61;26.21;101576.78;8611830;33;20643;-76
2021/05/30 11:58:49;;;;;;;4.80;3.35;;;;;;;26.39;25.62;101577.91;8586502;33;20412;-76
2021/05/30 12:03:52;;;;;;;3.30;2.72;;;;;;;26.98;24.14;101568.31;8615443;33;20443;-76
2021/05/30 12:08:56;;;;;;;4.30;3.08;;;;;;;26.78;25.82;101557.16;8638035;33;20406;-75
2021/05/30 12:14:03;;;;;;;3.47;2.38;;;;;;;27.10;25.58;101561.19;8635673;33;20148;-75
2021/05/30 12:19:07;;;;;;;2.83;2.53;;;;;;;27.49;24.37;101559.63;8632830;33;20569;-75
2021/05/30 12:24:13;;;;;;;3.25;2.75;;;;;;;27.76;25.40;101557.78;8632708;33;20144;-74
2021/05/30 12:29:16;;;;;;;2.92;2.17;;;;;;;28.04;23.62;101539.09;8629982;33;20548;-75
2021/05/30 12:34:19;;;;;;;2.30;2.10;;;;;;;28.59;23.59;101540.78;8626388;33;20423;-75
2021/05/30 12:39:24;;;;;;;3.03;2.58;;;;;;;27.86;23.08;101549.91;8582371;33;20853;-75
2021/05/30 12:44:37;;;;;;;2.60;2.20;;;;;;;27.77;23.61;101542.91;8559545;33;20306;-74
2021/05/30 12:49:53;;;;;;;2.53;2.33;;;;;;;28.03;23.75;101542.94;8561197;33;20123;-75
2021/05/30 12:54:59;;;;;;;2.03;1.88;;;;;;;28.04;22.29;101535.50;8565914;33;20407;-75
2021/05/30 13:00:05;;;;;;;3.53;2.13;;;;;;;28.52;22.32;101529.72;8565946;33;20401;-74
2021/05/30 13:05:09;;;;;;;2.50;2.30;;;;;;;28.25;23.81;101515.09;8565382;33;20580;-74
2021/05/30 13:10:12;;;;;;;2.30;2.10;;;;;;;28.24;22.56;101513.38;8567003;33;20162;-74
2021/05/30 13:15:19;;;;;;;2.47;2.20;;;;;;;28.47;23.59;101504.63;8613651;33;20400;-74
2021/05/30 13:20:25;;;;;;;3.35;2.40;;;;;;;28.24;23.98;101505.94;8570207;33;20858;-74
2021/05/30 13:25:33;;;;;;;2.92;2.45;;;;;;;28.88;24.32;101507.06;8569106;33;20389;-75
2021/05/30 13:30:36;;;;;;;5.30;2.80;;;;;;;28.75;24.74;101500.75;8567278;33;20484;-74
2021/05/30 13:35:39;;;;;;;3.00;2.70;;;;;;;29.05;24.61;101495.50;8563364;33;20131;-74
2021/05/30 13:40:45;;;;;;;3.35;2.50;;;;;;;28.61;25.41;101492.50;8539501;33;20419;-75
2021/05/30 13:46:08;;;;;;;2.75;2.53;;;;;;;29.20;23.81;101481.41;8564320;33;20142;-74
2021/05/30 13:51:11;;;;;;;2.90;2.30;;;;;;;29.04;22.44;101483.56;8564775;33;20403;-75
2021/05/30 13:56:15;;;;;;;2.47;2.28;;;;;;;29.37;22.69;101469.59;8566809;33;20493;-75
2021/05/30 14:01:18;;;;;;;6.93;2.75;;;;;;;28.92;23.95;101466.84;8586258;33;20400;-74
2021/05/30 14:06:21;;;;;;;4.63;2.72;;;;;;;29.22;24.36;101452.44;8587615;33;20585;-74
2021/05/30 14:11:28;;;;;;;5.63;3.05;;;;;;;29.12;24.16;101450.16;8628364;33;20472;-74
2021/05/30 14:16:46;;;;;;;3.00;2.80;;;;;;;28.83;24.54;101443.28;8633119;33;20404;-74
2021/05/30 14:21:49;;;;;;;5.57;3.22;;;;;;;29.42;24.21;101440.38;8631580;33;20468;-75
2021/05/30 14:26:52;;;;;;;4.45;2.72;;;;;;;29.21;24.42;101428.63;8618561;33;20140;-73
2021/05/30 14:31:55;;;;;;;3.95;3.20;;;;;;;29.41;24.63;101428.47;8564360;33;20139;-74
2021/05/30 14:36:58;;;;;;;3.22;2.60;;;;;;;29.84;24.53;101426.84;8573368;33;20402;-74
2021/05/30 14:42:02;;;;;;;3.58;2.60;;;;;;;29.04;25.35;101438.47;8563655;33;20387;-73
2021/05/30 14:47:05;;;;;;;3.17;2.75;;;;;;;29.03;25.12;101421.03;8569536;33;20409;-74
2021/05/30 14:52:07;;;;;;;4.38;3.97;;;;;;;28.97;25.66;101419.16;8565775;33;20416;-73
2021/05/30 14:57:11;;;;;;;5.00;3.05;;;;;;;28.89;25.61;101408.38;8630072;33;20938;-75
2021/05/30 15:02:13;;;;;;;5.72;3.40;;;;;;;29.32;24.94;101410.47;8646720;33;20150;-75
2021/05/30 15:07:16;;;;;;;4.53;3.42;;;;;;;28.81;25.65;101417.78;8653606;33;20242;-75
2021/05/30 15:12:20;;;;;;;5.15;3.20;;;;;;;29.21;25.00;101403.72;8628086;33;20461;-75
2021/05/30 15:17:22;;;;;;;4.05;3.08;;;;;;;27.65;26.17;101401.94;8640377;33;20251;-75
2021/05/30 15:22:25;;;;;;;3.95;3.17;;;;;;;26.45;28.43;101404.41;8647451;33;20426;-74
2021/05/30 15:27:28;;;;;;;4.85;3.03;;;;;;;27.86;26.41;101387.03;8654309;33;20947;-75
2021/05/30 15:32:31;;;;;;;4.68;3.00;;;;;;;28.81;26.18;101381.81;8647385;33;20394;-75
2021/05/30 15:37:34;;;;;;;4.43;3.40;;;;;;;26.87;27.23;101383.16;8574376;33;20442;-74
2021/05/30 15:42:40;;;;;;;4.85;3.55;;;;;;;27.81;26.38;101376.63;8558731;33;20352;-74
2021/05/30 15:47:43;;;;;;;4.47;3.33;;;;;;;29.23;24.66;101365.59;8562402;33;20626;-74
2021/05/30 15:52:46;;;;;;;4.82;3.22;;;;;;;28.34;25.41;101370.13;8540416;33;20420;-74
2021/05/30 15:57:51;;;;;;;3.08;2.78;;;;;;;27.94;26.47;101369.38;8616326;33;20520;-74
2021/05/30 16:02:53;;;;;;;3.67;3.15;;;;;;;28.92;25.42;101359.00;8652396;33;20150;-74
2021/05/30 16:07:57;;;;;;;4.47;3.20;;;;;;;29.94;23.72;101336.63;8650770;33;20706;-75
2021/05/30 16:13:00;;;;;;;3.47;3.20;;;;;;;29.88;23.96;101342.25;8635350;33;20554;-74
2021/05/30 16:18:03;;;;;;;3.55;2.97;;;;;;;30.43;23.41;101334.75;8586613;33;20421;-74
2021/05/30 16:23:06;;;;;;;4.50;3.33;;;;;;;30.66;23.31;101335.97;8583568;33;20552;-74
2021/05/30 16:28:10;;;;;;;4.57;3.15;;;;;;;27.74;25.82;101328.03;8582722;33;20412;-74
2021/05/30 16:33:13;;;;;;;4.18;3.38;;;;;;;24.94;29.09;101326.84;8582100;33;20871;-74
2021/05/30 16:38:16;;;;;;;4.18;3.55;;;;;;;27.89;27.22;101327.75;8593664;33;20415;-74
2021/05/30 16:43:20;;;;;;;3.88;3.40;;;;;;;35.49;19.22;101323.53;8583515;33;20473;-74
2021/05/30 16:48:23;;;;;;;3.63;3.33;;;;;;;35.92;18.34;101312.31;8607755;33;20910;-74
2021/05/30 16:53:26;;;;;;;4.10;3.42;;;;;;;33.99;20.39;101313.88;8583599;33;20143;-74
2021/05/30 16:58:30;;;;;;;3.60;3.28;;;;;;;33.31;21.10;101313.16;8608070;33;20424;-73
2021/05/30 17:03:32;;;;;;;5.28;3.67;;;;;;;35.02;20.04;101312.25;8608185;33;20123;-75
2021/05/30 17:08:35;;;;;;;6.22;3.40;;;;;;;35.84;19.51;101301.63;8601256;33;20436;-75
2021/05/30 17:13:38;;;;;;;5.32;3.45;;;;;;;36.20;18.60;101308.22;8577197;33;20911;-75
2021/05/30 17:18:45;;;;;;;3.35;3.15;;;;;;;36.30;18.14;101299.88;8579984;33;20313;-75
2021/05/30 17:23:48;;;;;;;4.30;3.80;;;;;;;35.18;18.71;101302.88;8588510;33;20202;-75
2021/05/30 17:28:52;;;;;;;5.72;2.92;;;;;;;34.23;19.77;101302.50;8581495;33;20118;-75
2021/05/30 17:33:56;;;;;;;4.22;2.72;;;;;;;35.10;18.02;101305.31;8566705;33;20435;-75
2021/05/30 17:38:59;;;;;;;3.42;2.67;;;;;;;35.58;18.04;101306.25;8547238;33;20401;-74
2021/05/30 17:44:03;;;;;;;2.45;2.15;;;;;;;34.24;17.63;101297.75;8603984;33;20837;-74
2021/05/30 17:49:06;;;;;;;3.75;2.80;;;;;;;30.19;20.33;101294.16;8606207;33;20912;-73
2021/05/30 17:54:09;;;;;;;3.20;2.70;;;;;;;26.80;24.19;101293.22;8602146;33;20122;-74
2021/05/30 17:59:14;;;;;;;4.65;2.47;;;;;;;24.97;26.06;101285.22;8606694;33;20139;-73
2021/05/30 18:04:16;;;;;;;2.67;2.20;;;;;;;23.85;26.86;101293.03;8605190;33;20138;-73
2021/05/30 18:09:19;;;;;;;4.15;2.85;;;;;;;22.66;29.09;101290.00;8605170;33;20463;-73
2021/05/30 18:14:27;;;;;;;3.40;2.60;;;;;;;21.67;30.42;101286.88;8605109;33;20140;-74
2021/05/30 18:19:29;;;;;;;4.30;2.22;;;;;;;21.20;31.19;101287.66;8605738;33;20435;-72
2021/05/30 18:24:32;;;;;;;3.35;2.40;;;;;;;20.94;32.00;101279.59;8580824;33;20893;-73
2021/05/30 18:29:38;;;;;;;3.10;2.60;;;;;;;20.68;32.91;101282.50;8603640;33;20436;-74
2021/05/30 18:34:45;;;;;;;2.75;2.33;;;;;;;20.33;32.82;101278.19;8592983;33;20407;-73
2021/05/30 18:39:47;;;;;;;3.05;2.17;;;;;;;20.04;33.89;101284.03;8589046;33;20127;-74
2021/05/30 18:44:51;;;;;;;3.35;2.22;;;;;;;19.82;33.87;101285.47;8532304;33;20420;-75
2021/05/30 18:49:53;;;;;;;3.17;2.50;;;;;;;19.73;34.01;101278.28;8530051;33;20432;-75
2021/05/30 18:54:56;;;;;;;3.10;2.65;;;;;;;19.56;34.17;101282.78;8559321;33;20526;-75
2021/05/30 19:00:00;;;;;;;2.88;2.30;;;;;;;19.45;34.57;101281.16;8558698;33;20894;-75
2021/05/30 19:05:03;;;;;;;2.63;2.42;;;;;;;19.26;35.48;101290.41;8558419;33;20352;-75
2021/05/30 19:10:09;;;;;;;5.35;2.85;;;;;;;19.11;35.64;101278.34;8534474;33;20533;-74
2021/05/30 19:15:15;;;;;;;3.08;2.30;;;;;;;18.97;36.17;101277.91;8558233;33;20869;-75
2021/05/30 19:20:18;;;;;;;3.17;2.70;;;;;;;18.79;36.54;101282.53;8532762;33;20938;-75
2021/05/30 19:25:20;;;;;;;4.13;2.72;;;;;;;18.62;37.13;101288.78;8557637;33;20147;-75
2021/05/30 19:30:28;;;;;;;3.40;2.75;;;;;;;18.43;37.48;101289.78;8557242;33;20629;-75
2021/05/30 19:35:31;;;;;;;4.10;2.65;;;;;;;18.17;38.47;101295.97;8557012;33;20409;-75
2021/05/30 19:40:34;;;;;;;3.92;3.08;;;;;;;17.88;39.32;101288.81;8557199;33;20434;-75
2021/05/30 19:45:38;;;;;;;4.25;3.17;;;;;;;17.71;40.24;101289.59;8556845;33;20547;-75
2021/05/30 19:50:41;;;;;;;4.53;3.03;;;;;;;17.66;40.26;101287.34;8566403;33;20539;-74
2021/05/30 19:55:44;;;;;;;5.47;3.30;;;;;;;17.54;41.32;101299.38;8565874;33;20404;-74
2021/05/30 20:00:48;;;;;;;6.32;3.10;;;;;;;17.40;41.79;101306.13;8556807;33;20392;-75
2021/05/30 20:05:51;;;;;;;4.85;3.28;;;;;;;17.34;42.24;101303.16;8556444;33;20396;-74
2021/05/30 20:10:54;;;;;;;5.95;3.70;;;;;;;17.31;42.35;101315.16;8557567;33;20127;-75
2021/05/30 20:15:57;;;;;;;6.30;3.38;;;;;;;17.20;42.30;101302.59;8557265;33;20428;-75
2021/05/30 20:21:02;;;;;;;5.90;3.55;;;;;;;17.06;42.40;101300.31;8556671;33;20928;-75
2021/05/30 20:26:09;;;;;;;3.85;3.20;;;;;;;16.88;43.18;101302.88;8557748;33;20939;-75
2021/05/30 20:31:14;;;;;;;5.43;3.90;;;;;;;16.71;43.88;101295.47;8557324;33;20387;-75
2021/05/30 20:36:17;;;;;;;4.30;3.80;;;;;;;16.65;44.24;101301.44;8556347;33;20428;-75
2021/05/30 20:41:19;;;;;;;4.22;3.38;;;;;;;16.46;44.67;101305.88;8556233;33;20904;-75
2021/05/30 20:46:23;;;;;;;5.60;3.40;;;;;;;16.37;45.13;101309.41;8556909;33;20407;-75
2021/05/30 20:51:26;;;;;;;6.80;3.83;;;;;;;16.33;45.57;101302.56;8557316;33;20379;-75
2021/05/30 20:56:28;;;;;;;4.75;3.63;;;;;;;16.17;46.56;101307.63;8557694;33;20419;-74
2021/05/30 21:01:32;;;;;;;8.05;4.30;;;;;;;16.00;46.64;101314.56;8560956;33;20440;-74
2021/05/30 21:06:35;;;;;;;6.07;3.75;;;;;;;16.01;46.77;101316.28;8556998;33;20383;-74
2021/05/30 21:11:37;;;;;;;8.27;4.32;;;;;;;15.82;47.45;101312.47;8561143;33;20459;-74
2021/05/30 21:16:41;;;;;;;7.82;4.55;;;;;;;15.65;48.62;101321.25;8562569;33;20429;-75
2021/05/30 21:21:43;;;;;;;5.10;4.20;;;;;;;15.63;48.51;101320.53;8562115;33;20402;-74
2021/05/30 21:26:46;;;;;;;9.00;4.50;;;;;;;15.38;49.77;101322.66;8537979;33;20841;-74
2021/05/30 21:31:50;;;;;;;6.22;3.85;;;;;;;15.21;50.12;101309.72;8563297;33;20491;-75
2021/05/30 21:36:52;;;;;;;7.85;4.22;;;;;;;15.16;50.54;101311.94;8561993;33;20408;-74
2021/05/30 21:41:55;;;;;;;6.18;4.38;;;;;;;14.79;51.25;101315.09;8564926;33;20420;-74
2021/05/30 21:46:58;;;;;;;7.47;4.00;;;;;;;14.75;51.55;101303.66;8540602;33;20403;-75
2021/05/30 21:52:03;;;;;;;8.00;4.78;;;;;;;14.54;52.26;101311.75;8561517;33;20451;-75
2021/05/30 21:57:06;;;;;;;5.18;4.10;;;;;;;14.40;52.25;101313.84;8560062;33;20897;-74
2021/05/30 22:02:09;;;;;;;8.50;4.88;;;;;;;14.16;53.70;101310.31;8559109;33;20326;-74
2021/05/30 22:07:13;;;;;;;7.90;4.40;;;;;;;14.25;53.27;101308.69;8561554;33;20412;-75
2021/05/30 22:12:16;;;;;;;9.45;4.75;;;;;;;14.31;53.55;101316.28;8541207;33;20393;-74
2021/05/30 22:22:40;;;;;;;7.70;5.00;;;;;;;14.48;53.59;101316.78;8560627;33;20386;-74
2021/05/30 22:27:43;;;;;;;7.18;4.95;;;;;;;14.40;53.50;101319.25;8534544;33;20422;-73
2021/05/30 22:32:47;;;;;;;9.80;4.97;;;;;;;14.29;54.11;101321.00;8558548;33;20260;-75
2021/05/30 22:37:50;;;;;;;9.27;5.38;;;;;;;14.22;54.97;101319.75;8557370;33;20422;-73
2021/05/30 22:42:53;;;;;;;7.30;5.20;;;;;;;13.98;55.81;101325.31;8557943;33;20236;-75
2021/05/30 22:47:57;;;;;;;7.60;5.40;;;;;;;13.86;56.12;101319.06;8532946;33;20438;-75
2021/05/30 22:52:59;;;;;;;8.07;6.35;;;;;;;13.68;56.76;101312.41;8557213;33;20448;-75
2021/05/30 22:58:03;;;;;;;8.90;5.53;;;;;;;13.27;58.49;101308.41;8559191;33;20385;-75
2021/05/30 23:03:07;;;;;;;10.00;6.07;;;;;;;13.27;58.61;101312.00;8536641;33;20424;-74
2021/05/30 23:08:10;;;;;;;12.07;5.65;;;;;;;12.99;59.63;101307.84;8557960;33;20433;-75
2021/05/30 23:13:13;;;;;;;10.30;7.00;;;;;;;13.16;59.57;101293.06;8530891;33;20423;-75
2021/05/30 23:18:17;;;;;;;10.65;6.38;;;;;;;12.92;60.66;101284.19;8552960;33;20369;-75
2021/05/30 23:23:20;;;;;;;12.65;6.25;;;;;;;12.82;60.94;101290.28;8550915;33;21069;-75
2021/05/30 23:28:23;;;;;;;10.85;6.53;;;;;;;12.65;61.98;101289.84;8550252;33;20465;-74
2021/05/30 23:33:26;;;;;;;8.77;5.93;;;;;;;12.48;62.13;101283.88;8555534;33;20392;-75